Time;durP1;ratioP1;P1;durP2;ratioP2;P2;SDS_P1;SDS_P2;PMS_P1;PMS_P2;Temp;Humidity;BMP_temperature;BMP_pressure;BME280_temperature;BME280_humidity;BME280_pressure;Samples;Min_cycle;Max_cycle;Signal;HPM_P1;HPM_P2
2021/08/10 00:02:29;;;;;;;8.10;5.80;;;;;;;27.64;97.53;101085.59;5029782;28;20041;-70
2021/08/10 00:05:15;;;;;;;7.07;6.25;;;;;;;27.86;96.70;101082.03;5034907;28;20033;-70
2021/08/10 00:08:01;;;;;;;9.98;6.40;;;;;;;27.62;98.47;101087.56;5035099;28;20025;-70
2021/08/10 00:10:48;;;;;;;7.55;6.05;;;;;;;27.66;98.49;101086.34;5034965;28;20097;-70
2021/08/10 00:13:34;;;;;;;7.70;5.40;;;;;;;27.48;100.00;101090.53;5035779;28;20087;-70
2021/08/10 00:16:20;;;;;;;9.02;5.60;;;;;;;27.36;100.00;101086.13;5033717;28;20040;-70
2021/08/10 00:19:06;;;;;;;7.70;5.53;;;;;;;27.54;100.00;101079.28;5022279;28;20044;-70
2021/08/10 00:21:52;;;;;;;8.05;5.28;;;;;;;27.08;100.00;101076.72;5034912;28;20476;-70
2021/08/10 00:24:38;;;;;;;7.35;5.40;;;;;;;27.21;100.00;101082.00;5034877;28;20021;-70
2021/08/10 00:27:23;;;;;;;9.90;5.32;;;;;;;27.04;100.00;101074.38;5021925;28;20428;-70
2021/08/10 00:30:10;;;;;;;6.65;5.47;;;;;;;27.01;100.00;101078.19;5034619;28;20103;-70
2021/08/10 00:32:56;;;;;;;6.65;5.70;;;;;;;27.25;100.00;101078.94;5034652;28;20057;-70
2021/08/10 00:35:41;;;;;;;6.10;5.45;;;;;;;27.10;100.00;101073.91;5033513;28;20119;-70
2021/08/10 00:38:27;;;;;;;7.32;6.18;;;;;;;27.39;100.00;101080.50;5035387;28;20035;-70
2021/08/10 00:41:13;;;;;;;9.40;6.65;;;;;;;27.04;100.00;101071.69;5034959;28;20167;-70
2021/08/10 00:43:59;;;;;;;9.35;7.30;;;;;;;27.35;100.00;101079.91;5020842;28;20116;-70
2021/08/10 00:46:45;;;;;;;11.80;8.80;;;;;;;26.70;100.00;101084.28;5034405;28;20025;-70
2021/08/10 00:49:31;;;;;;;13.98;9.27;;;;;;;26.84;100.00;101085.91;5035052;28;20039;-70
2021/08/10 00:52:16;;;;;;;13.43;9.48;;;;;;;26.64;100.00;101078.53;5034962;28;20059;-70
2021/08/10 00:55:04;;;;;;;14.85;9.40;;;;;;;26.78;100.00;101091.75;5033464;28;20080;-70
2021/08/10 00:57:50;;;;;;;11.73;9.38;;;;;;;27.04;100.00;101088.69;5020972;28;20106;-71
2021/08/10 01:00:35;;;;;;;13.13;8.77;;;;;;;26.79;100.00;101086.25;5020521;28;20032;-70
2021/08/10 01:03:21;;;;;;;28.38;11.23;;;;;;;27.14;100.00;101086.13;5033196;28;20366;-71
2021/08/10 01:06:31;;;;;;;13.10;8.00;;;;;;;26.77;100.00;101090.03;5032820;28;20071;-70
2021/08/10 01:09:34;;;;;;;11.93;6.50;;;;;;;27.11;100.00;101097.13;5031680;28;20130;-70
2021/08/10 01:12:28;;;;;;;10.13;7.15;;;;;;;27.27;100.00;101097.66;5034140;28;20030;-70
2021/08/10 01:15:20;;;;;;;10.00;6.05;;;;;;;27.18;100.00;101109.13;5034128;28;20469;-70
2021/08/10 01:18:12;;;;;;;8.63;6.18;;;;;;;27.15;100.00;101118.31;5033865;28;20036;-70
2021/08/10 01:21:17;;;;;;;11.75;5.65;;;;;;;27.18;100.00;101106.44;5035010;28;20022;-70
2021/08/10 01:24:13;;;;;;;10.70;5.85;;;;;;;27.06;100.00;101102.03;5034432;28;20083;-70
2021/08/10 01:26:59;;;;;;;12.07;6.28;;;;;;;26.90;100.00;101115.84;5034244;28;20040;-70
2021/08/10 01:30:17;;;;;;;9.75;7.00;;;;;;;26.51;100.00;101107.28;5033803;28;20048;-70
2021/08/10 03:25:49;;;;;;;9.10;6.50;;;;;;;25.03;100.00;101163.06;6017241;23;19929;31
2021/08/10 03:28:41;;;;;;;9.05;6.80;;;;;;;25.21;100.00;101171.66;4880938;29;20045;-69
2021/08/10 03:31:27;;;;;;;8.88;7.30;;;;;;;25.36;100.00;101173.28;4883591;29;20045;-70
2021/08/10 03:34:16;;;;;;;12.55;7.00;;;;;;;25.50;100.00;101175.81;4882763;29;20096;-69
2021/08/10 03:37:03;;;;;;;10.98;6.85;;;;;;;25.47;100.00;101176.91;4883136;29;20052;-69
2021/08/10 03:39:49;;;;;;;10.88;6.68;;;;;;;25.20;100.00;101181.50;4883107;29;20040;-70
2021/08/10 03:42:36;;;;;;;10.15;7.38;;;;;;;25.26;100.00;101186.47;4882446;29;20025;-70
2021/08/10 03:45:25;;;;;;;13.40;7.78;;;;;;;25.50;100.00;101181.19;4883027;29;20073;-69
2021/08/10 03:48:12;;;;;;;15.27;7.20;;;;;;;25.19;100.00;101185.16;4893973;29;20047;-69
2021/08/10 03:50:58;;;;;;;13.98;7.75;;;;;;;25.56;100.00;101189.66;4901212;29;20112;-69
2021/08/10 03:53:44;;;;;;;11.20;8.02;;;;;;;25.39;100.00;101190.00;4900717;29;20032;-69
2021/08/10 03:56:32;;;;;;;12.52;8.05;;;;;;;25.40;100.00;101183.66;4902643;28;20425;-69
2021/08/10 03:59:20;;;;;;;12.52;8.32;;;;;;;25.36;100.00;101181.34;4902343;29;20477;-70
2021/08/10 04:02:07;;;;;;;13.10;7.75;;;;;;;25.58;100.00;101187.75;4901135;29;20051;-69
2021/08/10 04:04:55;;;;;;;9.95;7.55;;;;;;;25.69;100.00;101181.59;4901067;29;20040;-70
2021/08/10 04:44:22;;;;;;;9.27;6.95;;;;;;;26.68;100.00;101212.59;5924311;23;21581;-71
2021/08/10 04:47:07;;;;;;;18.48;7.55;;;;;;;26.77;100.00;101208.34;4975990;28;20164;-71
2021/08/10 04:49:53;;;;;;;13.02;7.40;;;;;;;26.15;100.00;101212.19;4976726;28;20077;-70
2021/08/10 04:52:39;;;;;;;12.07;7.03;;;;;;;25.76;100.00;101207.88;4976009;28;20031;-70
2021/08/10 04:55:25;;;;;;;13.95;7.53;;;;;;;26.37;100.00;101202.41;4976090;28;20426;-70
2021/08/10 04:58:10;;;;;;;11.07;7.15;;;;;;;26.01;100.00;101217.72;4961635;28;20061;-70
2021/08/10 05:00:57;;;;;;;15.50;6.90;;;;;;;26.20;100.00;101207.34;4961969;28;20121;-70
2021/08/10 05:03:44;;;;;;;10.15;6.72;;;;;;;26.66;100.00;101213.69;4975875;28;20030;-70
2021/08/10 05:06:29;;;;;;;10.55;7.03;;;;;;;26.26;100.00;101206.88;4962632;28;20070;-70
2021/08/10 05:09:15;;;;;;;11.32;6.78;;;;;;;26.27;100.00;101206.75;4976587;28;20027;-70
2021/08/10 05:12:01;;;;;;;15.20;7.70;;;;;;;26.34;100.00;101216.09;4975847;28;20086;-70
2021/08/10 05:14:46;;;;;;;8.57;6.80;;;;;;;26.56;100.00;101218.03;4975755;28;20337;-70
2021/08/10 05:17:32;;;;;;;8.48;7.15;;;;;;;26.57;100.00;101222.44;4975653;28;20503;-70
2021/08/10 05:20:21;;;;;;;21.35;14.02;;;;;;;26.85;100.00;101238.19;4976026;28;20046;-70
2021/08/10 05:23:07;;;;;;;10.82;6.97;;;;;;;26.81;100.00;101234.88;4975792;28;20113;-70
2021/08/10 05:38:50;;;;;;;13.55;7.40;;;;;;;26.94;100.00;101227.59;6025366;23;20022;-69
2021/08/10 05:41:36;;;;;;;17.13;7.20;;;;;;;26.79;100.00;101236.84;4957985;28;20062;-73
2021/08/10 05:44:21;;;;;;;10.68;7.05;;;;;;;26.67;100.00;101221.63;4962355;28;20119;-72
2021/08/10 05:47:07;;;;;;;15.68;7.20;;;;;;;27.30;100.00;101222.06;4947710;28;20039;-72
2021/08/10 05:49:53;;;;;;;11.77;7.20;;;;;;;27.03;100.00;101226.00;4960751;29;20027;-72
2021/08/10 05:52:38;;;;;;;9.50;6.68;;;;;;;26.55;100.00;101235.09;4952497;29;20067;-72
2021/08/10 05:55:24;;;;;;;10.60;6.38;;;;;;;27.12;100.00;101225.28;4966456;29;20027;-72
2021/08/10 05:58:10;;;;;;;14.98;6.97;;;;;;;27.63;100.00;101228.41;4961264;28;20087;-73
2021/08/10 06:40:53;;;;;;;12.32;7.40;;;;;;;28.22;100.00;101229.84;5458005;23;20586;-73
2021/08/10 06:43:39;;;;;;;12.82;7.18;;;;;;;28.49;100.00;101225.75;4978133;28;20081;-73
2021/08/10 06:46:26;;;;;;;12.20;7.30;;;;;;;28.74;100.00;101227.25;4978328;28;20061;-72
2021/08/10 06:49:12;;;;;;;15.07;7.13;;;;;;;28.35;100.00;101223.31;4978353;28;20451;-72
2021/08/10 06:52:26;;;;;;;10.93;6.93;;;;;;;28.55;100.00;101214.47;4964788;28;20050;-73
2021/08/10 06:57:47;;;;;;;14.40;7.63;;;;;;;28.60;100.00;101220.31;5072971;23;20410;-70
2021/08/10 07:00:33;;;;;;;8.98;6.93;;;;;;;28.58;100.00;101218.72;4964669;28;20033;-70
2021/08/10 07:03:19;;;;;;;12.07;6.82;;;;;;;28.71;100.00;101214.88;4979312;28;20041;-70
2021/08/10 07:06:09;;;;;;;10.82;7.20;;;;;;;28.92;100.00;101214.88;4978085;28;20093;-70
2021/08/10 07:09:04;;;;;;;10.07;7.05;;;;;;;29.41;100.00;101231.28;4978738;28;20042;-72
2021/08/10 07:11:50;;;;;;;10.43;6.93;;;;;;;29.57;100.00;101221.72;4964287;28;20022;-70
2021/08/10 07:14:35;;;;;;;13.32;6.82;;;;;;;29.84;100.00;101230.06;4964744;28;20037;-71
2021/08/10 07:17:21;;;;;;;13.98;6.70;;;;;;;29.82;100.00;101225.78;4964032;28;20102;-70
2021/08/10 07:20:07;;;;;;;9.40;6.68;;;;;;;30.31;100.00;101217.69;4977806;28;20026;-71
2021/08/10 07:22:53;;;;;;;13.27;6.30;;;;;;;30.63;100.00;101221.84;4977625;28;20444;-70
2021/08/10 07:25:39;;;;;;;10.85;6.65;;;;;;;30.75;100.00;101217.16;4977473;28;20126;-70
2021/08/10 07:32:07;;;;;;;9.68;6.70;;;;;;;30.72;100.00;101212.03;4978849;28;20030;-72
2021/08/10 07:34:53;;;;;;;9.02;6.82;;;;;;;30.99;100.00;101213.00;4978693;28;20034;-73
2021/08/10 07:37:40;;;;;;;10.57;7.00;;;;;;;30.82;100.00;101208.31;4964401;28;20368;-73
2021/08/10 07:40:27;;;;;;;9.20;6.57;;;;;;;30.86;100.00;101203.50;4978666;28;20062;-72
2021/08/10 07:43:56;;;;;;;10.23;6.30;;;;;;;30.72;100.00;101199.38;4977353;28;20022;-71
2021/08/10 07:46:42;;;;;;;9.93;6.20;;;;;;;31.09;100.00;101200.31;4977830;28;20031;-71
2021/08/10 07:49:27;;;;;;;8.55;6.28;;;;;;;31.04;100.00;101209.84;4964444;28;20165;-72
2021/08/10 07:52:19;;;;;;;9.35;6.63;;;;;;;31.39;100.00;101205.50;4977443;28;20363;-72
2021/08/10 07:55:05;;;;;;;8.95;6.40;;;;;;;31.70;100.00;101208.78;4963842;28;20109;-73
2021/08/10 07:57:51;;;;;;;9.00;6.10;;;;;;;31.52;99.50;101197.06;4994939;28;20047;-72
2021/08/10 08:00:37;;;;;;;9.90;6.40;;;;;;;31.76;98.50;101199.22;4997558;28;20117;-71
2021/08/10 08:04:05;;;;;;;8.73;6.30;;;;;;;32.18;95.52;101200.44;5005343;28;20391;-73
2021/08/10 08:06:51;;;;;;;11.32;6.53;;;;;;;32.25;95.98;101201.50;4998405;28;20109;-73
2021/08/10 08:09:37;;;;;;;11.55;6.28;;;;;;;32.60;94.03;101196.13;4996075;28;20085;-71
2021/08/10 08:12:54;;;;;;;15.27;6.50;;;;;;;32.69;93.24;101196.03;4983079;28;20453;-72
2021/08/10 08:15:40;;;;;;;14.02;6.70;;;;;;;32.80;91.59;101197.66;4983176;28;20053;-72
2021/08/10 08:18:26;;;;;;;13.27;6.07;;;;;;;33.11;85.63;101196.22;4995522;28;20470;-72
2021/08/10 08:21:53;;;;;;;10.15;5.82;;;;;;;33.16;88.02;101193.88;4996269;28;20026;-71
2021/08/10 08:24:42;;;;;;;11.02;6.32;;;;;;;32.96;87.00;101184.22;4997370;28;20026;-73
2021/08/10 08:27:28;;;;;;;10.15;6.30;;;;;;;33.97;81.92;101188.75;4982977;28;20026;-72
2021/08/10 08:30:18;;;;;;;12.20;6.30;;;;;;;33.92;77.89;101193.81;4997011;28;20038;-72
2021/08/10 08:44:37;;;;;;;11.25;7.30;;;;;;;33.67;87.43;101193.88;5934007;23;22361;-70
2021/08/10 08:47:24;;;;;;;10.25;6.47;;;;;;;33.72;89.40;101194.22;4995997;28;20072;-70
2021/08/10 08:50:10;;;;;;;11.73;6.53;;;;;;;33.68;92.81;101190.13;4995289;28;20026;-70
2021/08/10 08:52:58;;;;;;;7.57;5.82;;;;;;;33.41;92.52;101185.75;4995376;28;20142;-70
2021/08/10 08:55:47;;;;;;;13.45;5.95;;;;;;;33.19;90.94;101188.97;4983155;28;20117;-70
2021/08/10 08:58:33;;;;;;;8.95;5.90;;;;;;;33.23;94.25;101181.38;4981290;28;20033;-72
2021/08/10 09:01:19;;;;;;;7.80;5.90;;;;;;;33.40;96.95;101178.63;4994750;28;20026;-73
2021/08/10 09:04:07;;;;;;;7.38;5.72;;;;;;;33.26;100.00;101178.34;4994950;28;20117;-72
2021/08/10 09:06:56;;;;;;;8.48;5.30;;;;;;;33.41;99.66;101176.72;4995194;28;20418;-73
2021/08/10 09:10:13;;;;;;;10.88;5.65;;;;;;;33.73;97.99;101168.72;4981314;28;20490;-73
2021/08/10 09:24:27;;;;;;;8.90;5.85;;;;;;;33.62;98.54;101167.16;5195864;23;20067;-73
2021/08/10 09:27:26;;;;;;;9.65;5.72;;;;;;;34.42;92.85;101163.84;4961131;28;20447;-73
2021/08/10 09:30:24;;;;;;;7.75;5.93;;;;;;;34.69;91.14;101160.78;4974488;28;20038;-73
2021/08/10 09:33:10;;;;;;;12.13;5.75;;;;;;;34.74;87.13;101159.25;4975173;28;20359;-73
2021/08/10 09:35:56;;;;;;;9.18;5.85;;;;;;;35.48;81.90;101164.44;4975080;28;20046;-74
2021/08/10 09:38:49;;;;;;;11.75;5.75;;;;;;;35.38;79.86;101163.78;4976749;28;20083;-73
2021/08/10 09:41:35;;;;;;;7.18;5.57;;;;;;;35.33;79.49;101148.97;4975494;28;20093;-71
2021/08/10 09:44:21;;;;;;;9.77;5.75;;;;;;;35.30;79.69;101152.91;4975663;28;20039;-71
2021/08/10 09:47:06;;;;;;;10.85;5.68;;;;;;;35.52;76.57;101149.44;4975891;28;20105;-70
2021/08/10 09:49:52;;;;;;;8.00;5.53;;;;;;;35.23;79.67;101154.59;4975503;28;20452;-70
2021/08/10 09:52:38;;;;;;;8.30;5.47;;;;;;;35.84;77.16;101143.84;4961595;28;20031;-70
2021/08/10 09:55:24;;;;;;;9.02;5.35;;;;;;;35.58;73.29;101146.00;4976817;28;20027;-72
2021/08/10 09:58:11;;;;;;;5.90;5.28;;;;;;;36.05;73.12;101140.47;4974559;28;20186;-73
2021/08/10 10:01:00;;;;;;;7.93;5.70;;;;;;;35.87;73.35;101140.75;4976938;28;20093;-72
2021/08/10 10:03:46;;;;;;;9.35;5.50;;;;;;;35.53;75.46;101137.50;4975452;28;20034;-72
2021/08/10 10:06:32;;;;;;;6.65;5.43;;;;;;;35.44;73.66;101144.00;4975053;28;20031;-72
2021/08/10 10:09:19;;;;;;;7.50;5.30;;;;;;;35.28;76.04;101143.19;4975409;28;20029;-72
2021/08/10 10:12:33;;;;;;;7.90;5.35;;;;;;;35.59;76.35;101144.94;4975693;28;20364;-71
2021/08/10 10:15:19;;;;;;;5.60;5.00;;;;;;;35.32;80.27;101137.25;4976560;28;20026;-71
2021/08/10 10:18:10;;;;;;;8.85;5.20;;;;;;;35.05;80.63;101138.47;4961407;28;20023;-71
2021/08/10 10:20:56;;;;;;;11.85;5.82;;;;;;;34.71;85.98;101140.53;4976671;28;20523;-71
2021/08/10 10:23:43;;;;;;;5.97;4.93;;;;;;;34.49;90.77;101133.06;4955521;28;20051;-71
2021/08/10 10:26:36;;;;;;;5.95;5.10;;;;;;;35.06;89.79;101131.16;4959590;28;20031;-71
2021/08/10 10:47:39;;;;;;;7.07;5.15;;;;;;;35.22;77.98;101112.03;5280892;23;20061;-70
2021/08/10 10:50:25;;;;;;;6.25;5.03;;;;;;;34.65;83.13;101105.84;5017575;28;20335;-69
2021/08/10 10:53:21;;;;;;;8.57;5.10;;;;;;;34.26;84.30;101107.50;5016902;28;20072;-70
2021/08/10 10:56:25;;;;;;;6.75;5.57;;;;;;;34.79;81.75;101109.72;5003730;28;20363;-70
2021/08/10 10:59:24;;;;;;;8.95;5.30;;;;;;;34.77;82.79;101106.31;5002662;28;20030;-70
2021/08/10 11:02:16;;;;;;;7.68;5.50;;;;;;;34.69;79.98;101107.19;5003943;28;20045;-70
2021/08/10 11:05:08;;;;;;;8.65;5.90;;;;;;;35.02;78.11;101105.28;5017386;28;20033;-71
2021/08/10 11:07:56;;;;;;;7.10;5.20;;;;;;;35.64;73.67;101106.25;5017308;28;20087;-71
2021/08/10 11:10:51;;;;;;;10.93;5.00;;;;;;;35.98;68.18;101102.16;5016294;28;20069;-70
2021/08/10 11:13:37;;;;;;;9.18;5.40;;;;;;;35.89;66.86;101094.19;5016563;28;20413;-70
2021/08/10 11:16:23;;;;;;;6.00;5.30;;;;;;;35.75;64.45;101104.00;5017769;28;20067;-70
2021/08/10 11:19:32;;;;;;;8.00;5.05;;;;;;;35.60;69.43;101092.13;5017194;28;20026;-70
2021/08/10 11:22:18;;;;;;;9.30;5.55;;;;;;;36.07;67.23;101090.16;5017492;28;20105;-72
2021/08/10 11:25:21;;;;;;;7.25;5.35;;;;;;;36.23;67.61;101094.69;5016740;28;20026;-73
2021/08/10 11:28:32;;;;;;;10.85;5.78;;;;;;;36.23;63.26;101091.97;5002882;28;20417;-70
2021/08/10 11:53:50;;;;;;;9.02;5.50;;;;;;;36.86;53.71;101079.59;4955962;29;20036;-70
2021/08/10 11:56:40;;;;;;;9.75;5.50;;;;;;;36.37;53.01;101074.75;4958306;28;20054;-73
2021/08/10 12:18:53;;;;;;;7.28;5.20;;;;;;;36.64;48.94;101055.88;5609544;23;20057;-71
2021/08/10 12:21:43;;;;;;;14.93;5.40;;;;;;;36.41;48.17;101051.50;4982863;28;20052;-70
2021/08/10 12:24:33;;;;;;;8.38;5.40;;;;;;;36.88;47.38;101049.34;4996135;28;20088;-70
2021/08/10 12:27:27;;;;;;;9.30;5.88;;;;;;;36.20;49.97;101046.72;4963179;28;20130;-70
2021/08/10 12:30:15;;;;;;;10.68;5.88;;;;;;;36.50;46.58;101034.00;4976649;28;20109;-72
2021/08/10 12:44:32;;;;;;;6.15;4.93;;;;;;;37.13;43.79;101021.53;5468162;23;20062;-70
2021/08/10 12:47:33;;;;;;;12.27;5.40;;;;;;;36.98;44.43;101028.03;4975516;28;20058;-70
2021/08/10 12:50:26;;;;;;;6.82;4.90;;;;;;;37.00;43.45;101007.69;4974906;28;20095;-70
2021/08/10 12:53:25;;;;;;;7.40;5.18;;;;;;;37.21;43.97;100999.56;4976056;28;20085;-70
2021/08/10 12:56:11;;;;;;;15.63;5.25;;;;;;;36.46;43.79;100998.06;4976599;28;20066;-71
2021/08/10 12:58:59;;;;;;;10.75;4.88;;;;;;;36.27;43.93;100995.84;4975596;28;20440;-70
2021/08/10 13:01:47;;;;;;;8.27;5.03;;;;;;;36.25;42.92;100995.22;4976558;28;20037;-70
2021/08/10 13:04:36;;;;;;;8.50;4.82;;;;;;;36.72;42.66;100995.72;4976083;28;20065;-71
2021/08/10 13:07:25;;;;;;;7.68;5.60;;;;;;;37.16;42.35;100988.38;4974982;28;20033;-69
2021/08/10 13:10:13;;;;;;;7.35;5.35;;;;;;;36.61;42.71;100982.53;4976092;28;20030;-74
2021/08/10 13:13:01;;;;;;;5.80;4.93;;;;;;;36.64;42.38;100976.66;4976476;28;20058;-74
2021/08/10 13:15:49;;;;;;;6.50;4.68;;;;;;;37.19;41.29;100971.59;4975672;28;20471;-74
2021/08/10 13:18:35;;;;;;;6.22;5.00;;;;;;;36.68;41.92;100975.28;4975569;28;20037;-74
2021/08/10 13:21:21;;;;;;;10.10;5.88;;;;;;;37.31;42.43;100961.00;4976211;28;20031;-74
2021/08/10 13:24:07;;;;;;;6.53;5.38;;;;;;;36.48;42.93;100962.38;4976128;28;20444;-72
2021/08/10 13:27:02;;;;;;;7.13;5.07;;;;;;;36.58;42.99;100968.38;4974205;28;20533;-73
2021/08/10 13:30:14;;;;;;;8.95;4.82;;;;;;;36.48;43.81;100963.19;4962510;28;20050;-72
2021/08/10 13:33:13;;;;;;;6.30;5.32;;;;;;;36.69;43.31;100966.09;4965450;28;20062;-70
2021/08/10 13:36:21;;;;;;;8.90;5.43;;;;;;;36.54;43.73;100973.38;4976140;28;20035;-71
2021/08/10 13:39:12;;;;;;;6.40;5.28;;;;;;;37.06;43.41;100957.75;4963373;28;20478;-71
2021/08/10 13:45:52;;;;;;;8.75;5.30;;;;;;;37.06;44.11;100954.16;4975297;28;20066;-71
2021/08/10 13:49:01;;;;;;;9.63;5.43;;;;;;;37.04;44.19;100945.31;4977482;28;20034;-73
2021/08/10 13:51:47;;;;;;;9.57;5.60;;;;;;;37.36;44.28;100945.72;4962216;28;20106;-71
2021/08/10 14:08:52;;;;;;;9.02;5.63;;;;;;;36.31;45.57;100939.84;5054280;23;20139;-71
2021/08/10 14:11:38;;;;;;;6.53;5.10;;;;;;;36.43;45.02;100935.63;4984799;28;20023;-71
2021/08/10 14:14:26;;;;;;;13.38;6.00;;;;;;;36.76;46.80;100928.75;4985184;28;20040;-71
2021/08/10 14:17:12;;;;;;;9.57;6.25;;;;;;;36.64;44.60;100926.69;4984149;28;20030;-72
2021/08/10 14:19:58;;;;;;;7.80;5.95;;;;;;;36.96;44.92;100912.63;4986341;28;20034;-72
2021/08/10 14:22:43;;;;;;;8.35;5.30;;;;;;;36.69;43.67;100914.19;4998668;28;20058;-72
2021/08/10 14:25:31;;;;;;;9.73;6.53;;;;;;;37.09;43.42;100902.72;5000097;28;20030;-71
2021/08/10 14:28:52;;;;;;;12.57;5.57;;;;;;;36.93;43.70;100896.63;4998539;28;20025;-72
2021/08/10 14:31:38;;;;;;;7.95;5.15;;;;;;;36.79;42.01;100892.03;4986814;28;20038;-72
2021/08/10 14:34:24;;;;;;;9.50;6.03;;;;;;;36.61;43.82;100897.03;4984043;28;20030;-69
2021/08/10 14:37:09;;;;;;;11.13;5.82;;;;;;;36.81;43.72;100892.69;4984176;28;20026;-69
2021/08/10 14:39:55;;;;;;;10.80;5.47;;;;;;;36.73;42.58;100893.66;4998601;28;20037;-70
2021/08/10 14:42:41;;;;;;;9.40;5.75;;;;;;;36.76;42.52;100884.22;4997229;28;20058;-70
2021/08/10 14:45:27;;;;;;;8.68;5.50;;;;;;;36.65;42.37;100884.69;4998618;28;20085;-70
2021/08/10 14:48:13;;;;;;;9.23;5.50;;;;;;;36.80;43.24;100875.44;4997931;28;20467;-70
2021/08/10 14:50:59;;;;;;;8.13;5.72;;;;;;;36.92;42.42;100879.38;4998297;28;20030;-70
2021/08/10 14:53:44;;;;;;;8.38;5.60;;;;;;;36.35;43.48;100881.13;4997453;28;20385;-70
2021/08/10 14:56:31;;;;;;;13.52;5.78;;;;;;;36.74;42.82;100889.03;4998287;28;20081;-70
2021/08/10 14:59:16;;;;;;;7.57;6.00;;;;;;;35.82;53.75;100891.38;4997464;28;20022;-70
2021/08/10 15:02:02;;;;;;;9.57;5.97;;;;;;;35.48;57.42;100886.38;4997802;28;20041;-71
2021/08/10 15:04:48;;;;;;;12.15;6.32;;;;;;;35.29;56.93;100884.13;4996358;28;20367;-70
2021/08/10 15:07:34;;;;;;;9.27;6.53;;;;;;;35.58;54.15;100886.09;4997060;28;20054;-70
2021/08/10 15:10:20;;;;;;;10.57;5.85;;;;;;;36.03;52.06;100886.91;4997087;28;20110;-70
2021/08/10 15:16:48;;;;;;;9.20;7.13;;;;;;;36.73;48.23;100895.53;4997074;28;20062;-70
2021/08/10 15:19:33;;;;;;;11.15;7.88;;;;;;;36.71;47.87;100887.53;4996439;28;20022;-70
2021/08/10 15:22:19;;;;;;;7.63;5.65;;;;;;;36.24;47.66;100897.13;4982598;28;20092;-70
2021/08/10 15:25:05;;;;;;;12.35;9.27;;;;;;;36.67;46.52;100897.09;4997028;28;20038;-70
2021/08/10 15:27:51;;;;;;;12.80;6.70;;;;;;;36.68;47.12;100898.81;4997729;28;20371;-70
2021/08/10 15:30:37;;;;;;;8.32;5.00;;;;;;;36.21;48.27;100905.66;4996093;28;20029;-70
2021/08/10 15:33:23;;;;;;;8.43;4.53;;;;;;;35.94;49.31;100912.56;4997968;28;20037;-71
2021/08/10 15:36:24;;;;;;;11.57;5.00;;;;;;;35.77;51.55;100921.94;4983895;28;20034;-71
2021/08/10 15:39:10;;;;;;;8.73;5.55;;;;;;;34.92;59.19;100912.06;4997226;28;20126;-70
2021/08/10 15:41:56;;;;;;;17.63;6.28;;;;;;;34.07;59.93;100909.25;4996506;28;20030;-69
2021/08/10 15:44:42;;;;;;;22.95;7.95;;;;;;;31.13;100.00;100917.41;4996793;28;20031;-70
2021/08/10 15:47:27;;;;;;;38.65;10.80;;;;;;;28.42;100.00;100922.63;4996751;28;20038;-68
2021/08/10 15:50:16;;;;;;;19.92;9.73;;;;;;;27.76;100.00;100914.91;4996205;28;20037;-69
2021/08/10 15:53:04;;;;;;;16.15;8.38;;;;;;;27.40;100.00;100905.44;4997151;28;20041;-69
2021/08/10 15:55:50;;;;;;;10.68;7.93;;;;;;;27.26;100.00;100908.44;4995469;28;20113;-69
2021/08/10 15:58:39;;;;;;;16.63;8.55;;;;;;;27.98;100.00;100917.53;4997080;28;20058;-70
2021/08/10 16:01:25;;;;;;;12.85;7.88;;;;;;;28.33;100.00;100923.38;4997887;28;20109;-69
2021/08/10 16:04:11;;;;;;;10.32;8.50;;;;;;;28.81;100.00;100918.22;4986179;28;20482;-70
2021/08/10 16:06:57;;;;;;;11.68;8.25;;;;;;;28.93;100.00;100914.41;4996227;28;20108;-70
2021/08/10 16:09:43;;;;;;;12.10;10.00;;;;;;;29.11;100.00;100910.06;4996322;28;20037;-70
2021/08/10 16:12:32;;;;;;;9.32;8.20;;;;;;;29.38;100.00;100880.53;4996612;28;20028;-70
2021/08/10 16:15:17;;;;;;;8.77;7.88;;;;;;;29.03;100.00;100881.09;4982559;28;20030;-70
2021/08/10 16:18:04;;;;;;;8.88;7.97;;;;;;;29.33;100.00;100883.66;4981649;28;20027;-70
2021/08/10 16:20:49;;;;;;;10.10;8.15;;;;;;;29.45;100.00;100890.63;4982189;28;20057;-70
2021/08/10 16:23:35;;;;;;;9.23;8.00;;;;;;;29.51;100.00;100881.09;4996640;28;20038;-70
2021/08/10 16:26:21;;;;;;;9.43;8.00;;;;;;;29.27;100.00;100870.75;4995889;28;20066;-70
2021/08/10 16:29:08;;;;;;;9.50;7.68;;;;;;;29.42;100.00;100866.63;4995735;28;20034;-70
2021/08/10 16:31:53;;;;;;;10.70;7.97;;;;;;;29.55;100.00;100860.91;4981928;28;20034;-70
2021/08/10 16:34:39;;;;;;;8.80;7.28;;;;;;;29.47;100.00;100853.53;4995563;28;20034;-70
2021/08/10 16:37:25;;;;;;;9.88;7.20;;;;;;;29.86;100.00;100838.97;4981660;28;20041;-69
2021/08/10 16:40:13;;;;;;;10.85;6.95;;;;;;;29.84;100.00;100840.13;4981974;28;20204;-68
2021/08/10 16:42:59;;;;;;;9.60;7.47;;;;;;;29.95;100.00;100838.13;4994420;28;20041;-69
2021/08/10 16:45:44;;;;;;;9.25;8.00;;;;;;;30.05;100.00;100838.91;4995976;28;20026;-69
2021/08/10 16:48:30;;;;;;;10.15;7.95;;;;;;;30.31;100.00;100848.09;4995508;28;20029;-69
2021/08/10 16:51:16;;;;;;;11.02;7.55;;;;;;;30.40;100.00;100851.75;4981930;28;20125;-70
2021/08/10 16:54:02;;;;;;;9.65;7.90;;;;;;;30.18;100.00;100855.69;4995341;28;20104;-71
2021/08/10 16:56:47;;;;;;;13.90;8.52;;;;;;;30.31;100.00;100852.66;4995902;28;20103;-69
2021/08/10 16:59:33;;;;;;;11.02;7.95;;;;;;;30.18;100.00;100854.84;4995156;28;20030;-70
2021/08/10 17:02:19;;;;;;;9.77;8.07;;;;;;;30.38;100.00;100857.28;4981368;28;20072;-69
2021/08/10 17:05:05;;;;;;;10.55;7.85;;;;;;;30.41;100.00;100859.72;4981411;28;20023;-70
2021/08/10 17:07:51;;;;;;;11.90;8.38;;;;;;;30.25;100.00;100855.94;4995303;28;20061;-70
2021/08/10 17:10:37;;;;;;;11.90;8.10;;;;;;;30.47;100.00;100853.72;4995168;28;20092;-71
2021/08/10 17:13:23;;;;;;;11.82;8.48;;;;;;;30.66;100.00;100860.88;4995144;28;20026;-70
2021/08/10 17:16:09;;;;;;;12.95;8.70;;;;;;;30.81;100.00;100859.38;4981698;28;20026;-71
2021/08/10 17:18:55;;;;;;;11.70;9.50;;;;;;;31.00;100.00;100856.53;4981442;28;20082;-70
2021/08/10 17:21:43;;;;;;;13.23;8.63;;;;;;;30.94;100.00;100844.47;4995657;28;20184;-70
2021/08/10 17:24:28;;;;;;;14.98;8.70;;;;;;;31.11;100.00;100846.31;4996828;28;20034;-69
2021/08/10 17:27:18;;;;;;;10.52;8.07;;;;;;;30.75;100.00;100844.63;4995283;28;20022;-70
2021/08/10 17:30:06;;;;;;;13.15;8.40;;;;;;;31.09;100.00;100856.47;4994732;28;20459;-70
2021/08/10 17:32:59;;;;;;;11.25;8.57;;;;;;;31.18;100.00;100862.81;4980922;28;20030;-70
2021/08/10 17:35:48;;;;;;;18.52;10.18;;;;;;;30.82;100.00;100888.97;4996038;28;20038;-71
2021/08/10 17:38:34;;;;;;;13.10;9.45;;;;;;;30.41;100.00;100904.81;4997646;28;20054;-70
2021/08/10 17:41:20;;;;;;;19.98;8.52;;;;;;;30.05;100.00;100911.88;4999139;28;20478;-70
2021/08/10 17:44:07;;;;;;;10.10;6.57;;;;;;;29.27;100.00;100902.25;4999950;28;20340;-70
2021/08/10 17:46:53;;;;;;;13.30;6.40;;;;;;;29.04;100.00;100898.13;4998689;28;20035;-71
2021/08/10 17:49:39;;;;;;;10.20;5.35;;;;;;;29.18;100.00;100895.03;4998498;28;20082;-73
2021/08/10 17:52:25;;;;;;;11.02;5.03;;;;;;;28.94;100.00;100902.63;4985231;28;20030;-73
2021/08/10 17:55:11;;;;;;;10.32;4.82;;;;;;;29.04;100.00;100912.47;4998817;28;20026;-72
2021/08/10 17:57:58;;;;;;;8.20;4.70;;;;;;;29.04;100.00;100907.06;4999413;28;20093;-72
2021/08/10 18:00:45;;;;;;;8.90;4.90;;;;;;;29.18;100.00;100919.31;4997429;28;20124;-72
2021/08/10 18:03:31;;;;;;;6.25;4.38;;;;;;;29.20;100.00;100931.66;4997481;28;20030;-73
2021/08/10 18:06:19;;;;;;;7.82;4.85;;;;;;;29.18;100.00;100940.91;4998291;28;20414;-72
2021/08/10 18:09:05;;;;;;;7.40;4.70;;;;;;;28.99;100.00;100943.53;4998207;28;20447;-73
2021/08/10 18:11:51;;;;;;;9.07;5.15;;;;;;;28.94;100.00;100948.50;4996890;28;20023;-72
2021/08/10 18:14:37;;;;;;;7.63;5.20;;;;;;;28.68;100.00;100958.06;4998975;28;20030;-73
2021/08/10 18:17:53;;;;;;;5.70;4.90;;;;;;;28.63;100.00;100955.78;4998384;28;20034;-70
2021/08/10 18:20:39;;;;;;;9.65;6.10;;;;;;;28.49;100.00;100966.06;4997979;28;20030;-70
2021/08/10 18:23:25;;;;;;;6.38;5.70;;;;;;;28.39;100.00;100971.38;4998318;28;20383;-70